createdAt,value
2023-02-16T00:01:58.945Z,4.90
2023-02-16T00:04:30.466Z,4.90
2023-02-16T00:06:57.764Z,4.90
2023-02-16T00:09:24.774Z,4.90
2023-02-16T00:12:11.937Z,4.90
2023-02-16T00:14:39.669Z,4.90
2023-02-16T00:17:07.073Z,5.00
2023-02-16T00:19:38.359Z,5.00
2023-02-16T00:22:06.438Z,5.00
2023-02-16T00:24:33.125Z,5.00
2023-02-16T00:27:00.688Z,5.00
2023-02-16T00:29:30.569Z,5.00
2023-02-16T00:31:58.811Z,4.90
2023-02-16T00:34:36.140Z,4.90
2023-02-16T00:37:05.570Z,4.90
2023-02-16T00:39:32.945Z,4.90
2023-02-16T00:42:04.712Z,4.90
2023-02-16T00:44:39.373Z,4.90
2023-02-16T00:47:20.932Z,4.90
2023-02-16T00:49:49.551Z,4.90
2023-02-16T00:52:36.627Z,4.90
2023-02-16T00:55:07.085Z,4.90
2023-02-16T00:57:42.098Z,4.80
2023-02-16T01:00:24.996Z,4.80
2023-02-16T01:02:54.644Z,4.80
2023-02-16T01:05:21.755Z,4.80
2023-02-16T01:08:07.143Z,4.80
2023-02-16T01:10:53.476Z,4.80
2023-02-16T01:13:20.165Z,4.80
2023-02-16T01:15:46.827Z,4.80
2023-02-16T01:18:15.376Z,4.80
2023-02-16T01:20:42.088Z,4.70
2023-02-16T01:23:09.176Z,4.70
2023-02-16T01:25:36.911Z,4.80
2023-02-16T01:28:14.027Z,4.70
2023-02-16T01:30:40.582Z,4.70
2023-02-16T01:33:08.303Z,4.70
2023-02-16T01:35:34.898Z,4.70
2023-02-16T01:38:01.650Z,4.60
2023-02-16T01:40:34.222Z,4.60
2023-02-16T01:43:26.295Z,4.60
2023-02-16T01:46:03.393Z,4.60
2023-02-16T01:48:32.288Z,4.60
2023-02-16T01:51:10.916Z,4.50
2023-02-16T01:53:44.060Z,4.50
2023-02-16T01:56:33.051Z,4.50
2023-02-16T01:59:08.804Z,4.50
2023-02-16T02:02:13.016Z,4.50
2023-02-16T02:05:10.396Z,4.40
2023-02-16T02:07:45.431Z,4.40
2023-02-16T02:10:35.432Z,4.30
2023-02-16T02:13:11.126Z,4.30
2023-02-16T02:15:37.705Z,4.30
2023-02-16T02:18:04.395Z,4.20
2023-02-16T02:21:08.478Z,4.20
2023-02-16T02:23:53.259Z,4.20
2023-02-16T02:26:58.473Z,4.20
2023-02-16T02:29:24.982Z,4.20
2023-02-16T02:32:10.333Z,4.20
2023-02-16T02:34:58.284Z,4.20
2023-02-16T02:37:56.843Z,4.10
2023-02-16T02:40:39.554Z,4.20
2023-02-16T02:43:22.956Z,4.10
2023-02-16T02:45:56.332Z,4.10
2023-02-16T02:48:22.937Z,4.20
2023-02-16T02:51:30.098Z,4.20
2023-02-16T02:54:19.725Z,4.20
2023-02-16T02:57:26.819Z,4.10
2023-02-16T03:00:21.292Z,4.10
2023-02-16T03:02:50.819Z,4.10
2023-02-16T03:05:20.318Z,4.10
2023-02-16T03:07:51.747Z,4.00
2023-02-16T03:10:41.375Z,4.00
2023-02-16T03:13:21.417Z,4.00
2023-02-16T03:15:49.879Z,4.00
2023-02-16T03:18:35.550Z,4.10
2023-02-16T03:21:21.760Z,4.00
2023-02-16T03:24:09.128Z,4.00
2023-02-16T03:26:55.680Z,4.10
2023-02-16T03:29:24.596Z,4.10
2023-02-16T03:31:54.271Z,4.10
2023-02-16T03:34:21.978Z,4.10
2023-02-16T03:36:52.234Z,4.10
2023-02-16T03:39:19.796Z,4.10
2023-02-16T03:41:50.128Z,4.10
2023-02-16T03:44:17.467Z,4.10
2023-02-16T03:46:44.288Z,4.10
2023-02-16T03:49:10.915Z,4.10
2023-02-16T03:51:37.892Z,4.10
2023-02-16T03:54:04.704Z,4.10
2023-02-16T03:56:31.273Z,4.10
2023-02-16T03:58:57.854Z,4.10
2023-02-16T04:01:24.609Z,4.10
2023-02-16T04:03:51.263Z,4.10
2023-02-16T04:06:17.964Z,4.10
2023-02-16T04:08:44.566Z,4.10
2023-02-16T04:11:29.822Z,4.10
2023-02-16T04:13:56.370Z,4.10
2023-02-16T04:16:22.996Z,4.10
2023-02-16T04:18:49.810Z,4.10
2023-02-16T04:21:16.669Z,4.10
2023-02-16T04:23:43.224Z,4.10
2023-02-16T04:26:09.811Z,4.10
2023-02-16T04:28:36.355Z,4.10
2023-02-16T04:31:03.404Z,4.00
2023-02-16T04:33:30.203Z,4.00
2023-02-16T04:35:56.781Z,4.00
2023-02-16T04:38:23.574Z,4.00
2023-02-16T04:40:50.110Z,3.90
2023-02-16T04:43:16.744Z,3.90
2023-02-16T04:45:43.355Z,3.90
2023-02-16T04:48:09.975Z,3.90
2023-02-16T04:50:36.519Z,3.90
2023-02-16T04:53:04.011Z,3.90
2023-02-16T04:55:30.858Z,4.00
2023-02-16T04:57:57.668Z,4.00
2023-02-16T05:00:24.546Z,4.00
2023-02-16T05:02:51.115Z,4.00
2023-02-16T05:05:17.837Z,4.10
2023-02-16T05:07:44.635Z,4.10
2023-02-16T05:10:11.262Z,4.20
2023-02-16T05:12:56.337Z,4.30
2023-02-16T05:15:23.011Z,4.40
2023-02-16T05:17:49.637Z,4.50
2023-02-16T05:20:16.282Z,4.50
2023-02-16T05:22:44.298Z,4.60
2023-02-16T05:25:10.925Z,4.70
2023-02-16T05:27:37.495Z,4.70
2023-02-16T05:30:04.447Z,4.70
2023-02-16T05:32:31.096Z,4.80
2023-02-16T05:34:57.662Z,4.80
2023-02-16T05:37:24.248Z,4.90
2023-02-16T05:39:52.646Z,4.90
2023-02-16T05:42:19.232Z,4.90
2023-02-16T05:44:45.814Z,4.90
2023-02-16T05:47:12.631Z,5.00
2023-02-16T05:49:39.301Z,5.00
2023-02-16T05:52:05.974Z,4.90
2023-02-16T05:54:32.796Z,5.00
2023-02-16T05:56:59.425Z,4.90
2023-02-16T05:59:26.087Z,5.00
2023-02-16T06:01:52.841Z,5.00
2023-02-16T06:04:20.959Z,5.00
2023-02-16T06:06:47.948Z,5.10
2023-02-16T06:09:14.811Z,5.10
2023-02-16T06:11:41.468Z,5.20
2023-02-16T06:14:16.938Z,5.20
2023-02-16T06:16:46.003Z,5.30
2023-02-16T06:19:13.655Z,5.30
2023-02-16T06:21:41.176Z,5.30
2023-02-16T06:24:10.350Z,5.30
2023-02-16T06:26:37.247Z,5.30
2023-02-16T06:29:05.048Z,5.40
2023-02-16T06:31:33.854Z,5.40
2023-02-16T06:34:03.597Z,5.40
2023-02-16T06:36:30.507Z,5.40
2023-02-16T06:38:57.135Z,5.40
2023-02-16T06:41:35.503Z,5.40
2023-02-16T06:44:05.047Z,5.50
2023-02-16T06:46:31.905Z,5.50
2023-02-16T06:48:58.643Z,5.50
2023-02-16T06:51:25.645Z,5.60
2023-02-16T06:53:52.360Z,5.60
2023-02-16T06:56:18.981Z,5.60
2023-02-16T06:58:45.586Z,5.70
2023-02-16T07:01:12.517Z,5.70
2023-02-16T07:03:39.739Z,5.70
2023-02-16T07:06:06.700Z,5.70
2023-02-16T07:08:35.524Z,5.70
2023-02-16T07:11:02.492Z,5.60
2023-02-16T07:13:29.121Z,5.70
2023-02-16T07:15:55.696Z,5.70
2023-02-16T07:18:22.313Z,5.70
2023-02-16T07:20:48.929Z,5.70
2023-02-16T07:23:15.506Z,5.70
2023-02-16T07:25:42.103Z,5.70
2023-02-16T07:28:08.710Z,5.80
2023-02-16T07:30:36.176Z,5.90
2023-02-16T07:33:03.053Z,5.90
2023-02-16T07:35:29.627Z,6.00
2023-02-16T07:37:56.278Z,6.00
2023-02-16T07:40:23.055Z,6.00
2023-02-16T07:42:49.616Z,6.00
2023-02-16T07:45:16.171Z,6.10
2023-02-16T07:47:42.777Z,6.10
2023-02-16T07:50:09.973Z,6.10
2023-02-16T07:52:36.634Z,6.20
2023-02-16T07:55:03.568Z,6.20
2023-02-16T07:57:30.184Z,6.20
2023-02-16T07:59:56.980Z,6.20
2023-02-16T08:02:24.113Z,6.30
2023-02-16T08:04:52.603Z,6.30
2023-02-16T08:07:20.420Z,6.40
2023-02-16T08:09:47.333Z,6.40
2023-02-16T08:12:15.572Z,6.50
2023-02-16T08:14:42.931Z,6.50
2023-02-16T08:17:09.814Z,6.50
2023-02-16T08:19:40.226Z,6.50
2023-02-16T08:22:08.489Z,6.50
2023-02-16T08:24:35.660Z,6.40
2023-02-16T08:27:04.250Z,6.40
2023-02-16T08:29:31.760Z,6.30
2023-02-16T08:31:58.873Z,6.40
2023-02-16T08:34:26.301Z,6.40
2023-02-16T08:36:56.380Z,6.50
2023-02-16T08:39:26.393Z,6.60
2023-02-16T08:41:53.963Z,6.60
2023-02-16T08:44:22.386Z,6.70
2023-02-16T08:46:50.279Z,6.80
2023-02-16T08:49:18.755Z,7.00
2023-02-16T08:51:48.962Z,7.10
2023-02-16T08:54:18.722Z,7.20
2023-02-16T08:56:47.785Z,7.40
2023-02-16T08:59:17.005Z,7.50
2023-02-16T09:01:43.681Z,7.60
2023-02-16T09:04:10.419Z,7.60
2023-02-16T09:06:38.492Z,7.70
2023-02-16T09:09:05.659Z,7.70
2023-02-16T09:11:32.883Z,7.80
2023-02-16T09:13:59.542Z,7.90
2023-02-16T09:16:29.132Z,8.00
2023-02-16T09:18:57.321Z,8.10
2023-02-16T09:21:25.480Z,8.10
2023-02-16T09:23:55.652Z,8.10
2023-02-16T09:26:23.878Z,8.20
2023-02-16T09:28:51.215Z,8.20
2023-02-16T09:31:25.406Z,8.40
2023-02-16T09:33:54.014Z,8.50
2023-02-16T09:36:20.680Z,8.70
2023-02-16T09:38:50.117Z,8.80
2023-02-16T09:41:22.936Z,8.80
2023-02-16T09:43:56.542Z,8.70
2023-02-16T09:46:25.266Z,8.70
2023-02-16T09:48:53.004Z,8.60
2023-02-16T09:51:42.387Z,8.70
2023-02-16T09:54:21.661Z,8.70
2023-02-16T09:57:00.157Z,8.70
2023-02-16T09:59:45.751Z,8.80
2023-02-16T10:02:55.614Z,8.80
2023-02-16T10:06:01.032Z,8.80
2023-02-16T10:08:31.223Z,8.90
2023-02-16T10:11:32.873Z,8.90
2023-02-16T10:14:08.251Z,8.80
2023-02-16T10:16:42.547Z,8.70
2023-02-16T10:19:26.005Z,8.70
2023-02-16T10:21:58.548Z,8.60
2023-02-16T10:24:27.801Z,8.60
2023-02-16T10:27:02.479Z,8.60
2023-02-16T10:29:29.245Z,8.60
2023-02-16T10:31:59.012Z,8.50
2023-02-16T10:35:15.161Z,8.40
2023-02-16T10:38:18.121Z,8.50
2023-02-16T10:41:30.141Z,8.50
2023-02-16T10:44:02.382Z,8.50
2023-02-16T10:46:36.644Z,8.40
2023-02-16T10:49:03.283Z,8.40
2023-02-16T10:51:36.821Z,8.40
2023-02-16T10:54:12.953Z,8.40
2023-02-16T10:56:49.516Z,8.50
2023-02-16T10:59:21.052Z,8.50
2023-02-16T11:01:51.887Z,8.50
2023-02-16T11:04:37.763Z,8.40
2023-02-16T11:07:06.296Z,8.40
2023-02-16T11:09:33.177Z,8.40
2023-02-16T11:12:00.451Z,8.30
2023-02-16T11:14:30.778Z,8.20
2023-02-16T11:17:16.559Z,8.20
2023-02-16T11:19:56.175Z,8.20
2023-02-16T11:22:36.850Z,8.20
2023-02-16T11:25:21.910Z,8.10
2023-02-16T11:28:01.906Z,8.10
2023-02-16T11:30:38.043Z,8.00
2023-02-16T11:33:20.391Z,7.90
2023-02-16T11:35:47.700Z,7.80
2023-02-16T11:38:35.393Z,7.80
2023-02-16T11:41:05.144Z,7.90
2023-02-16T11:43:37.141Z,8.10
2023-02-16T11:46:07.107Z,8.20
2023-02-16T11:48:34.347Z,8.40
2023-02-16T11:51:08.562Z,8.40
2023-02-16T11:53:37.955Z,8.40
2023-02-16T11:56:27.206Z,8.40
2023-02-16T11:59:20.696Z,8.50
2023-02-16T12:01:56.065Z,8.50
2023-02-16T12:05:00.829Z,8.50
2023-02-16T12:07:57.006Z,8.60
2023-02-16T12:10:45.037Z,8.70
2023-02-16T12:13:33.007Z,8.70
2023-02-16T12:16:16.564Z,8.60
2023-02-16T12:18:50.212Z,8.60
2023-02-16T12:21:37.264Z,8.50
2023-02-16T12:24:28.703Z,8.40
2023-02-16T12:26:58.464Z,8.40
2023-02-16T12:29:47.670Z,8.40
2023-02-16T12:32:39.051Z,8.50
2023-02-16T12:35:42.787Z,8.40
2023-02-16T12:38:22.294Z,8.30
2023-02-16T12:41:17.984Z,8.20
2023-02-16T12:44:01.906Z,8.10
2023-02-16T12:46:36.614Z,8.30
2023-02-16T12:49:12.720Z,8.30
2023-02-16T12:51:45.868Z,8.40
2023-02-16T12:54:40.849Z,8.30
2023-02-16T12:57:13.690Z,8.30
2023-02-16T12:59:55.446Z,8.40
2023-02-16T13:02:51.283Z,8.40
2023-02-16T13:05:30.448Z,8.30
2023-02-16T13:08:15.815Z,8.30
2023-02-16T13:11:07.537Z,8.20
2023-02-16T13:13:35.462Z,8.10
2023-02-16T13:16:17.364Z,8.00
2023-02-16T13:18:52.688Z,8.00
2023-02-16T13:21:51.923Z,8.00
2023-02-16T13:24:27.784Z,8.00
2023-02-16T13:27:09.391Z,7.90
2023-02-16T13:29:52.459Z,7.80
2023-02-16T13:32:32.211Z,7.80
2023-02-16T13:35:35.565Z,7.80
2023-02-16T13:38:18.965Z,7.70
2023-02-16T13:41:09.367Z,7.70
2023-02-16T13:44:00.271Z,7.60
2023-02-16T13:46:38.802Z,7.70
2023-02-16T13:49:06.492Z,7.60
2023-02-16T13:51:44.653Z,7.60
2023-02-16T13:54:27.964Z,7.60
2023-02-16T13:56:54.855Z,7.70
2023-02-16T13:59:22.222Z,7.70
2023-02-16T14:01:50.565Z,7.80
2023-02-16T14:04:22.908Z,7.80
2023-02-16T14:07:13.271Z,7.80
2023-02-16T14:09:39.863Z,7.80
2023-02-16T14:12:09.437Z,7.90
2023-02-16T14:14:55.224Z,7.90
2023-02-16T14:17:22.008Z,8.00
2023-02-16T14:19:54.179Z,8.00
2023-02-16T14:22:42.875Z,8.10
2023-02-16T14:25:22.171Z,8.10
2023-02-16T14:27:48.759Z,8.10
2023-02-16T14:30:33.811Z,8.10
2023-02-16T14:33:12.371Z,8.10
2023-02-16T14:35:41.800Z,8.10
2023-02-16T14:38:26.709Z,8.10
2023-02-16T14:40:57.522Z,8.10
2023-02-16T14:43:28.007Z,8.20
2023-02-16T14:46:31.953Z,8.20
2023-02-16T14:49:23.957Z,8.20
2023-02-16T14:52:27.756Z,8.30
2023-02-16T14:54:54.277Z,8.40
2023-02-16T14:57:52.097Z,8.40
2023-02-16T15:00:29.007Z,8.40
2023-02-16T15:02:59.403Z,8.40
2023-02-16T15:05:32.900Z,8.40
2023-02-16T15:08:23.740Z,8.40
2023-02-16T15:10:55.738Z,8.40
2023-02-16T15:13:30.661Z,8.30
2023-02-16T15:16:00.636Z,8.30
2023-02-16T15:18:40.894Z,8.30
2023-02-16T15:21:20.747Z,8.30
2023-02-16T15:23:50.336Z,8.30
2023-02-16T15:26:22.669Z,8.20
2023-02-16T15:29:20.440Z,8.20
2023-02-16T15:31:48.047Z,8.20
2023-02-16T15:34:30.615Z,8.10
2023-02-16T15:36:57.276Z,8.10
2023-02-16T15:39:45.216Z,8.10
2023-02-16T15:42:22.142Z,8.20
2023-02-16T15:44:49.165Z,8.10
2023-02-16T15:47:24.573Z,8.10
2023-02-16T15:49:52.659Z,8.10
2023-02-16T15:52:37.757Z,8.10
2023-02-16T15:55:09.025Z,8.10
2023-02-16T15:57:38.524Z,8.00
2023-02-16T16:00:15.667Z,8.00
2023-02-16T16:02:47.352Z,8.00
2023-02-16T16:05:29.064Z,8.00
2023-02-16T16:07:57.122Z,8.00
2023-02-16T16:10:29.238Z,8.00
2023-02-16T16:13:03.041Z,8.00
2023-02-16T16:15:34.059Z,7.90
2023-02-16T16:18:02.498Z,7.90
2023-02-16T16:20:42.187Z,7.90
2023-02-16T16:23:14.954Z,7.90
2023-02-16T16:25:46.906Z,7.80
2023-02-16T16:28:27.510Z,7.80
2023-02-16T16:31:17.109Z,7.80
2023-02-16T16:33:58.915Z,7.80
2023-02-16T16:36:41.867Z,7.70
2023-02-16T16:39:19.644Z,7.70
2023-02-16T16:42:06.631Z,7.70
2023-02-16T16:44:34.562Z,7.70
2023-02-16T16:47:22.580Z,7.70
2023-02-16T16:50:01.553Z,7.70
2023-02-16T16:52:42.140Z,7.70
2023-02-16T16:55:40.288Z,7.70
2023-02-16T16:58:08.310Z,7.70
2023-02-16T17:00:38.297Z,7.70
2023-02-16T17:03:07.617Z,7.70
2023-02-16T17:05:35.762Z,7.70
2023-02-16T17:08:02.337Z,7.60
2023-02-16T17:10:29.526Z,7.60
2023-02-16T17:12:58.407Z,7.60
2023-02-16T17:15:47.760Z,7.60
2023-02-16T17:18:17.736Z,7.60
2023-02-16T17:20:45.597Z,7.60
2023-02-16T17:23:14.586Z,7.60
2023-02-16T17:25:42.287Z,7.60
2023-02-16T17:28:09.946Z,7.60
2023-02-16T17:30:37.491Z,7.60
2023-02-16T17:33:04.599Z,7.60
2023-02-16T17:35:31.818Z,7.60
2023-02-16T17:37:58.709Z,7.60
2023-02-16T17:40:25.751Z,7.60
2023-02-16T17:42:52.436Z,7.60
2023-02-16T17:45:21.930Z,7.60
2023-02-16T17:47:50.988Z,7.60
2023-02-16T17:50:18.607Z,7.60
2023-02-16T17:52:45.446Z,7.60
2023-02-16T17:55:12.800Z,7.60
2023-02-16T17:57:39.445Z,7.60
2023-02-16T18:00:08.198Z,7.50
2023-02-16T18:02:34.915Z,7.50
2023-02-16T18:05:01.589Z,7.50
2023-02-16T18:07:28.172Z,7.50
2023-02-16T18:09:54.845Z,7.50
2023-02-16T18:12:21.427Z,7.40
2023-02-16T18:14:48.056Z,7.40
2023-02-16T18:17:14.661Z,7.40
2023-02-16T18:19:41.304Z,7.50
2023-02-16T18:22:07.944Z,7.40
2023-02-16T18:24:34.490Z,7.40
2023-02-16T18:27:01.184Z,7.50
2023-02-16T18:29:27.787Z,7.40
2023-02-16T18:31:54.455Z,7.40
2023-02-16T18:34:21.455Z,7.40
2023-02-16T18:36:48.082Z,7.40
2023-02-16T18:39:14.930Z,7.50
2023-02-16T18:41:41.486Z,7.50
2023-02-16T18:44:08.100Z,7.50
2023-02-16T18:46:34.803Z,7.50
2023-02-16T18:49:01.422Z,7.50
2023-02-16T18:51:31.675Z,7.50
2023-02-16T18:53:58.327Z,7.50
2023-02-16T18:56:25.260Z,7.50
2023-02-16T18:58:51.818Z,7.50
2023-02-16T19:01:29.243Z,7.50
2023-02-16T19:03:56.171Z,7.50
2023-02-16T19:06:22.954Z,7.50
2023-02-16T19:08:51.192Z,7.50
2023-02-16T19:11:21.019Z,7.50
2023-02-16T19:13:48.760Z,7.50
2023-02-16T19:16:16.934Z,7.50
2023-02-16T19:18:43.662Z,7.50
2023-02-16T19:21:12.061Z,7.50
2023-02-16T19:23:38.945Z,7.60
2023-02-16T19:26:11.210Z,7.60
2023-02-16T19:28:38.972Z,7.60
2023-02-16T19:31:08.519Z,7.60
2023-02-16T19:33:35.797Z,7.60
2023-02-16T19:36:08.478Z,7.70
2023-02-16T19:38:35.195Z,7.70
2023-02-16T19:41:08.651Z,7.70
2023-02-16T19:43:35.447Z,7.70
2023-02-16T19:46:05.478Z,7.80
2023-02-16T19:48:32.661Z,7.80
2023-02-16T19:51:00.953Z,7.80
2023-02-16T19:53:27.598Z,7.80
2023-02-16T19:55:54.696Z,7.80
2023-02-16T19:58:22.312Z,7.80
2023-02-16T20:00:49.223Z,7.80
2023-02-16T20:03:16.461Z,7.80
2023-02-16T20:05:43.700Z,7.80
2023-02-16T20:08:10.598Z,7.90
2023-02-16T20:10:44.666Z,7.90
2023-02-16T20:13:11.332Z,7.90
2023-02-16T20:15:38.332Z,7.90
2023-02-16T20:18:06.467Z,7.90
2023-02-16T20:20:34.112Z,7.90
2023-02-16T20:23:00.646Z,7.90
2023-02-16T20:25:27.280Z,8.00
2023-02-16T20:27:56.374Z,8.00
2023-02-16T20:30:25.229Z,8.00
2023-02-16T20:32:52.117Z,8.00
2023-02-16T20:35:18.675Z,8.00
2023-02-16T20:37:45.283Z,8.00
2023-02-16T20:40:12.224Z,8.00
2023-02-16T20:42:38.848Z,8.00
2023-02-16T20:45:05.861Z,8.00
2023-02-16T20:47:32.448Z,8.00
2023-02-16T20:49:59.060Z,8.00
2023-02-16T20:52:25.654Z,8.00
2023-02-16T20:54:52.199Z,8.00
2023-02-16T20:57:26.856Z,8.00
2023-02-16T20:59:54.883Z,8.00
2023-02-16T21:02:21.513Z,8.00
2023-02-16T21:04:48.209Z,8.10
2023-02-16T21:07:14.761Z,8.10
2023-02-16T21:09:41.357Z,8.10
2023-02-16T21:12:07.973Z,8.10
2023-02-16T21:14:34.653Z,8.10
2023-02-16T21:17:01.225Z,8.10
2023-02-16T21:19:27.888Z,8.10
2023-02-16T21:21:54.531Z,8.10
2023-02-16T21:24:21.095Z,8.10
2023-02-16T21:26:47.770Z,8.20
2023-02-16T21:29:14.545Z,8.20
2023-02-16T21:31:41.277Z,8.20
2023-02-16T21:34:07.905Z,8.20
2023-02-16T21:36:34.735Z,8.20
2023-02-16T21:39:02.921Z,8.20
2023-02-16T21:41:29.805Z,8.20
2023-02-16T21:43:59.165Z,8.20
2023-02-16T21:46:26.262Z,8.30
2023-02-16T21:48:53.311Z,8.30
2023-02-16T21:51:28.126Z,8.30
2023-02-16T21:53:55.731Z,8.30
2023-02-16T21:56:41.628Z,8.40
2023-02-16T21:59:11.377Z,8.40
2023-02-16T22:01:42.464Z,8.40
2023-02-16T22:04:11.801Z,8.40
2023-02-16T22:06:41.370Z,8.40
2023-02-16T22:09:12.102Z,8.40
2023-02-16T22:11:38.863Z,8.50
2023-02-16T22:14:05.894Z,8.50
2023-02-16T22:16:34.800Z,8.50
2023-02-16T22:19:10.972Z,8.50
2023-02-16T22:21:41.514Z,8.50
2023-02-16T22:24:11.007Z,8.50
2023-02-16T22:26:37.629Z,8.60
2023-02-16T22:29:06.188Z,8.60
2023-02-16T22:31:33.243Z,8.60
2023-02-16T22:34:03.091Z,8.60
2023-02-16T22:36:30.279Z,8.60
2023-02-16T22:38:57.105Z,8.70
2023-02-16T22:41:24.660Z,8.70
2023-02-16T22:43:56.151Z,8.70
2023-02-16T22:46:24.052Z,8.70
2023-02-16T22:48:51.806Z,8.70
2023-02-16T22:51:20.567Z,8.80
2023-02-16T22:53:47.824Z,8.80
2023-02-16T22:56:16.649Z,8.80
2023-02-16T22:58:43.302Z,8.80
2023-02-16T23:01:19.987Z,8.90
2023-02-16T23:03:48.952Z,8.90
2023-02-16T23:06:21.906Z,8.90
2023-02-16T23:08:53.168Z,9.00
2023-02-16T23:11:20.013Z,9.00
2023-02-16T23:13:46.617Z,8.90
2023-02-16T23:16:16.226Z,9.00
2023-02-16T23:18:43.415Z,9.00
2023-02-16T23:21:32.626Z,9.00
2023-02-16T23:24:00.056Z,9.00
2023-02-16T23:26:29.637Z,9.10
2023-02-16T23:28:58.226Z,9.00
2023-02-16T23:31:24.935Z,9.10
2023-02-16T23:33:51.691Z,9.10
2023-02-16T23:36:18.445Z,9.10
2023-02-16T23:38:44.978Z,9.10
2023-02-16T23:41:12.907Z,9.10
2023-02-16T23:43:40.011Z,9.10
2023-02-16T23:46:07.882Z,9.10
2023-02-16T23:48:34.899Z,9.10
2023-02-16T23:51:01.869Z,9.10
2023-02-16T23:53:28.890Z,9.10
2023-02-16T23:56:07.214Z,9.10
2023-02-16T23:58:37.011Z,9.10
